Time;durP1;ratioP1;P1;durP2;ratioP2;P2;SDS_P1;SDS_P2;PMS_P1;PMS_P2;Temp;Humidity;BMP_temperature;BMP_pressure;BME280_temperature;BME280_humidity;BME280_pressure;Samples;Min_cycle;Max_cycle;Signal;HPM_P1;HPM_P2
2021/03/15 00:00:11;;;;;;;15.63;6.07;;;4.40;99.90;;;;;;5056516;28;20089;-64
2021/03/15 00:02:38;;;;;;;11.43;5.63;;;4.40;99.90;;;;;;5057045;28;20025;-64
2021/03/15 00:05:06;;;;;;;16.98;5.82;;;4.30;99.90;;;;;;5056732;28;20546;-64
2021/03/15 00:07:32;;;;;;;12.70;5.97;;;4.30;99.90;;;;;;5056423;28;20492;-64
2021/03/15 00:09:58;;;;;;;11.98;6.07;;;4.20;99.90;;;;;;5056928;28;20036;-64
2021/03/15 00:12:24;;;;;;;13.05;5.90;;;4.10;99.90;;;;;;5056151;28;20040;-64
2021/03/15 00:14:49;;;;;;;13.27;5.20;;;4.10;99.90;;;;;;5056789;28;20036;-64
2021/03/15 00:17:16;;;;;;;10.52;5.47;;;4.10;99.90;;;;;;5056050;28;20107;-64
2021/03/15 00:19:41;;;;;;;12.38;4.95;;;4.10;99.90;;;;;;5057505;28;20036;-68
2021/03/15 00:22:07;;;;;;;13.07;5.00;;;3.90;99.90;;;;;;5055613;28;20067;-69
2021/03/15 00:24:33;;;;;;;11.55;5.40;;;3.90;99.90;;;;;;5056920;28;20032;-68
2021/03/15 00:26:58;;;;;;;11.25;4.95;;;3.90;99.90;;;;;;5055304;28;20036;-68
2021/03/15 00:29:24;;;;;;;11.38;5.03;;;3.90;99.90;;;;;;5056002;28;20663;-68
2021/03/15 00:31:50;;;;;;;13.45;5.10;;;3.90;99.90;;;;;;5055780;28;20028;-68
2021/03/15 00:34:16;;;;;;;13.88;5.38;;;3.90;99.90;;;;;;5036403;28;20054;-68
2021/03/15 00:36:43;;;;;;;8.15;4.95;;;3.80;99.90;;;;;;5054739;28;20568;-68
2021/03/15 00:39:10;;;;;;;12.70;4.85;;;3.70;99.90;;;;;;5055682;28;20024;-68
2021/03/15 00:41:36;;;;;;;9.63;4.57;;;3.60;99.90;;;;;;5052871;28;20762;-68
2021/03/15 00:44:02;;;;;;;10.75;4.82;;;3.50;99.90;;;;;;5055329;28;20062;-68
2021/03/15 00:46:28;;;;;;;10.95;4.53;;;3.50;99.90;;;;;;5055781;28;20028;-69
2021/03/15 00:48:54;;;;;;;10.27;4.60;;;3.50;99.90;;;;;;5055277;28;20032;-68
2021/03/15 00:51:21;;;;;;;16.65;4.65;;;3.40;99.90;;;;;;5054594;28;20057;-68
2021/03/15 00:53:47;;;;;;;10.98;4.45;;;3.40;99.90;;;;;;5055948;28;20048;-68
2021/03/15 00:56:13;;;;;;;13.88;4.63;;;3.30;99.90;;;;;;5054637;28;20032;-68
2021/03/15 00:58:39;;;;;;;13.73;5.15;;;3.30;99.90;;;;;;5040298;28;20028;-68
2021/03/15 01:01:05;;;;;;;14.80;4.68;;;3.30;99.90;;;;;;5055254;28;20032;-68
2021/03/15 01:03:42;;;;;;;12.35;5.38;;;3.40;99.90;;;;;;5053963;28;20501;-69
2021/03/15 01:06:11;;;;;;;15.13;5.65;;;3.40;99.90;;;;;;5056192;28;20028;-68
2021/03/15 01:08:37;;;;;;;12.80;6.25;;;3.40;99.90;;;;;;5055948;28;20127;-68
2021/03/15 01:11:08;;;;;;;14.73;5.50;;;3.60;99.90;;;;;;5054424;28;20067;-68
2021/03/15 01:13:36;;;;;;;9.60;4.97;;;3.60;99.90;;;;;;5054401;28;20048;-69
2021/03/15 01:16:03;;;;;;;11.52;5.03;;;3.80;99.90;;;;;;5055683;28;20036;-69
2021/03/15 01:18:31;;;;;;;13.48;5.60;;;3.80;99.90;;;;;;5053220;28;20028;-68
2021/03/15 01:20:57;;;;;;;12.77;5.05;;;3.80;99.90;;;;;;5056104;28;20067;-68
2021/03/15 01:23:23;;;;;;;9.68;4.38;;;3.90;99.90;;;;;;5055970;28;20131;-68
2021/03/15 01:25:49;;;;;;;10.55;4.57;;;4.00;99.90;;;;;;5055496;28;20472;-68
2021/03/15 01:28:17;;;;;;;11.70;5.10;;;3.90;99.90;;;;;;5055916;28;20044;-68
2021/03/15 01:30:44;;;;;;;11.00;4.43;;;3.90;99.90;;;;;;5055668;28;20035;-68
2021/03/15 01:33:10;;;;;;;14.20;4.80;;;3.90;99.90;;;;;;5055313;28;20036;-69
2021/03/15 01:35:37;;;;;;;9.63;4.82;;;4.00;99.90;;;;;;5055197;28;20082;-68
2021/03/15 01:38:07;;;;;;;10.30;4.70;;;4.00;99.90;;;;;;5055599;28;20040;-68
2021/03/15 01:40:37;;;;;;;9.50;5.07;;;4.10;99.90;;;;;;5053430;28;20033;-68
2021/03/15 01:43:04;;;;;;;12.98;5.22;;;4.10;99.90;;;;;;5055565;28;20036;-68
2021/03/15 01:45:31;;;;;;;15.20;5.00;;;4.10;99.90;;;;;;5055137;28;20058;-68
2021/03/15 01:47:56;;;;;;;14.20;5.20;;;4.00;99.90;;;;;;5058611;28;20040;-68
2021/03/15 01:50:22;;;;;;;9.85;5.07;;;4.00;99.90;;;;;;5059474;28;20055;-68
2021/03/15 01:52:51;;;;;;;11.20;4.90;;;4.10;99.90;;;;;;5040244;28;20128;-68
2021/03/15 01:55:18;;;;;;;7.85;4.75;;;4.00;99.90;;;;;;5056969;28;20037;-68
2021/03/15 01:57:46;;;;;;;13.95;4.72;;;4.00;99.90;;;;;;5059014;28;20547;-68
2021/03/15 02:00:13;;;;;;;10.38;5.10;;;4.00;99.90;;;;;;5041083;28;20235;-68
2021/03/15 02:02:42;;;;;;;16.52;5.95;;;3.90;99.90;;;;;;5040711;28;20098;-68
2021/03/15 02:05:09;;;;;;;9.73;4.78;;;3.90;99.90;;;;;;5040225;28;20781;-68
2021/03/15 02:07:35;;;;;;;11.68;4.88;;;3.90;99.90;;;;;;5058567;28;20066;-68
2021/03/15 02:10:01;;;;;;;10.48;5.15;;;3.90;99.90;;;;;;5058629;28;20781;-68
2021/03/15 02:12:41;;;;;;;9.13;4.45;;;3.90;99.90;;;;;;5056932;28;20076;-68
2021/03/15 02:15:41;;;;;;;13.52;5.65;;;3.80;99.90;;;;;;5058352;28;20365;-69
2021/03/15 02:18:12;;;;;;;10.95;4.90;;;3.70;99.90;;;;;;5057848;28;20032;-68
2021/03/15 02:21:01;;;;;;;18.05;5.93;;;3.70;99.90;;;;;;5057167;28;20032;-69
2021/03/15 02:23:35;;;;;;;13.40;5.30;;;3.60;99.90;;;;;;5020558;28;20168;-68
2021/03/15 02:26:26;;;;;;;12.40;5.05;;;3.60;99.90;;;;;;5059342;28;20405;-68
2021/03/15 02:29:10;;;;;;;13.88;5.82;;;3.50;99.90;;;;;;5060713;28;20083;-68
2021/03/15 02:31:51;;;;;;;12.10;5.85;;;3.40;99.90;;;;;;5058550;28;20029;-69
2021/03/15 02:34:49;;;;;;;12.43;5.25;;;3.30;99.90;;;;;;5058376;28;20487;-68
2021/03/15 02:37:18;;;;;;;10.75;5.45;;;3.30;99.90;;;;;;5040158;28;20598;-68
2021/03/15 02:39:49;;;;;;;15.13;5.50;;;3.20;99.90;;;;;;5055795;28;20032;-68
2021/03/15 02:42:18;;;;;;;14.00;6.53;;;3.20;99.90;;;;;;5058187;28;20041;-68
2021/03/15 02:44:51;;;;;;;12.48;6.35;;;3.10;99.90;;;;;;5057172;28;20078;-68
2021/03/15 02:47:22;;;;;;;11.55;5.75;;;3.10;99.90;;;;;;5057033;28;20077;-68
2021/03/15 02:49:52;;;;;;;21.33;6.50;;;3.10;99.90;;;;;;5039791;28;20032;-68
2021/03/15 02:52:19;;;;;;;16.63;6.25;;;3.00;99.90;;;;;;5057592;28;20078;-68
2021/03/15 02:54:46;;;;;;;17.60;7.00;;;3.00;99.90;;;;;;5057475;28;20036;-69
2021/03/15 02:57:17;;;;;;;14.55;6.80;;;3.00;99.90;;;;;;5055723;28;20083;-68
2021/03/15 02:59:46;;;;;;;19.27;7.38;;;3.00;99.90;;;;;;5057103;28;20043;-68
2021/03/15 03:02:12;;;;;;;24.05;7.25;;;2.90;99.90;;;;;;5057573;28;20032;-68
2021/03/15 03:04:38;;;;;;;22.35;7.25;;;2.90;99.90;;;;;;5057043;28;20036;-68
2021/03/15 03:07:05;;;;;;;21.27;6.93;;;2.90;99.90;;;;;;5055556;28;20032;-68
2021/03/15 03:09:33;;;;;;;24.15;7.22;;;2.80;99.90;;;;;;5056197;28;20033;-68
2021/03/15 03:12:01;;;;;;;17.75;7.38;;;2.80;99.90;;;;;;5055683;28;20068;-68
2021/03/15 03:14:28;;;;;;;20.65;7.28;;;2.80;99.90;;;;;;5057223;28;20036;-68
2021/03/15 03:16:56;;;;;;;22.83;7.72;;;2.80;99.90;;;;;;5056341;28;20032;-68
2021/03/15 03:19:23;;;;;;;19.63;7.20;;;2.70;99.90;;;;;;5056743;28;20871;-68
2021/03/15 03:21:51;;;;;;;18.65;7.63;;;2.60;99.90;;;;;;5055670;28;20032;-68
2021/03/15 03:24:18;;;;;;;23.92;7.00;;;2.60;99.90;;;;;;5055252;28;20717;-68
2021/03/15 03:26:45;;;;;;;14.43;6.60;;;2.60;99.90;;;;;;5057170;28;20068;-68
2021/03/15 03:29:13;;;;;;;24.48;7.95;;;2.60;99.90;;;;;;5056992;28;20442;-68
2021/03/15 03:31:44;;;;;;;18.73;7.45;;;2.60;99.90;;;;;;5057429;28;20068;-68
2021/03/15 03:34:11;;;;;;;27.17;7.70;;;2.50;99.90;;;;;;5056791;28;20024;-68
2021/03/15 03:36:38;;;;;;;21.88;8.13;;;2.60;99.90;;;;;;5056979;28;20033;-68
2021/03/15 03:39:07;;;;;;;23.63;7.78;;;2.60;99.90;;;;;;5056217;28;20051;-69
2021/03/15 03:41:34;;;;;;;15.85;7.15;;;2.60;99.90;;;;;;5055448;28;20032;-70
2021/03/15 03:44:00;;;;;;;22.23;7.13;;;2.50;99.90;;;;;;5056975;28;20131;-69
2021/03/15 03:46:26;;;;;;;20.88;7.47;;;2.50;99.90;;;;;;5056527;28;20137;-69
2021/03/15 03:48:52;;;;;;;26.70;7.32;;;2.50;99.90;;;;;;5055539;28;21016;-69
2021/03/15 03:51:21;;;;;;;23.83;7.35;;;2.50;99.90;;;;;;5056789;28;20862;-69
2021/03/15 03:53:52;;;;;;;29.63;8.10;;;2.50;99.90;;;;;;5056391;28;20111;-69
2021/03/15 03:56:24;;;;;;;20.33;7.78;;;2.50;99.90;;;;;;5055999;28;20043;-69
2021/03/15 03:58:53;;;;;;;20.42;9.02;;;2.50;99.90;;;;;;5056068;28;20113;-69
2021/03/15 04:01:29;;;;;;;23.67;8.55;;;2.60;99.90;;;;;;5054781;28;20111;-68
2021/03/15 04:03:56;;;;;;;25.50;9.00;;;2.60;99.90;;;;;;5056560;28;20574;-69
2021/03/15 04:06:27;;;;;;;20.05;7.75;;;2.60;99.90;;;;;;5037271;28;20041;-69
2021/03/15 04:08:54;;;;;;;20.17;8.10;;;2.50;99.90;;;;;;5049489;28;20114;-69
2021/03/15 04:11:22;;;;;;;22.10;7.63;;;2.50;99.90;;;;;;5055397;28;20055;-68
2021/03/15 04:13:50;;;;;;;25.90;8.68;;;2.60;99.90;;;;;;5055862;28;20048;-69
2021/03/15 04:16:17;;;;;;;23.10;8.50;;;2.60;99.90;;;;;;5054658;28;20078;-69
2021/03/15 04:18:47;;;;;;;22.65;8.10;;;2.60;99.90;;;;;;5054283;28;20035;-69
2021/03/15 04:21:15;;;;;;;21.10;8.48;;;2.60;99.90;;;;;;5056111;28;20111;-69
2021/03/15 04:23:44;;;;;;;24.65;8.38;;;2.50;99.90;;;;;;5054643;28;20064;-69
2021/03/15 04:26:11;;;;;;;26.70;9.25;;;2.50;99.90;;;;;;5053294;28;20048;-69
2021/03/15 04:28:38;;;;;;;18.33;8.35;;;2.50;99.90;;;;;;5049811;28;20033;-69
2021/03/15 04:31:07;;;;;;;19.60;8.18;;;2.50;99.90;;;;;;5033582;28;20044;-69
2021/03/15 04:33:33;;;;;;;29.00;8.85;;;2.60;99.90;;;;;;5054598;28;20336;-69
2021/03/15 04:35:59;;;;;;;28.85;9.25;;;2.60;99.90;;;;;;5058399;28;20032;-69
2021/03/15 04:38:26;;;;;;;22.15;10.07;;;2.60;99.90;;;;;;5057753;28;20024;-69
2021/03/15 04:40:54;;;;;;;23.60;8.45;;;2.60;99.90;;;;;;5055598;28;20489;-69
2021/03/15 04:43:20;;;;;;;23.73;8.07;;;2.60;99.90;;;;;;5053363;28;20323;-69
2021/03/15 04:45:49;;;;;;;18.08;8.45;;;2.60;99.90;;;;;;5044181;28;20392;-69
2021/03/15 04:48:21;;;;;;;25.85;8.57;;;2.50;99.90;;;;;;5055132;28;20044;-69
2021/03/15 04:50:52;;;;;;;21.33;9.15;;;2.50;99.90;;;;;;5054573;28;20068;-69
2021/03/15 04:53:19;;;;;;;20.20;7.95;;;2.50;99.90;;;;;;5052092;28;20024;-69
2021/03/15 04:55:45;;;;;;;23.02;7.85;;;2.40;99.90;;;;;;5053884;28;20102;-69
2021/03/15 04:58:14;;;;;;;27.08;9.20;;;2.40;99.90;;;;;;5055128;28;20823;-68
2021/03/15 05:00:43;;;;;;;26.63;9.65;;;2.40;99.90;;;;;;5050983;28;20044;-68
2021/03/15 05:03:11;;;;;;;28.75;8.57;;;2.30;99.90;;;;;;5037953;28;20047;-68
2021/03/15 05:05:38;;;;;;;21.63;8.43;;;2.30;99.90;;;;;;5053174;28;20042;-69
2021/03/15 05:08:06;;;;;;;29.35;8.65;;;2.30;99.90;;;;;;5055999;28;20537;-68
2021/03/15 05:10:34;;;;;;;22.92;8.43;;;2.20;99.90;;;;;;5037561;28;20506;-68
2021/03/15 05:13:00;;;;;;;21.52;9.85;;;2.30;99.90;;;;;;5038502;28;20025;-68
2021/03/15 05:15:26;;;;;;;23.92;9.40;;;2.50;99.90;;;;;;5055580;28;20043;-69
2021/03/15 05:17:54;;;;;;;28.70;9.40;;;2.50;99.90;;;;;;5054305;28;20047;-68
2021/03/15 05:20:21;;;;;;;24.70;9.43;;;2.60;99.90;;;;;;5056283;28;20024;-68
2021/03/15 05:22:47;;;;;;;21.17;9.10;;;2.60;99.90;;;;;;5059242;28;20552;-68
2021/03/15 05:25:14;;;;;;;121.45;44.97;;;2.70;99.90;;;;;;5058356;28;20029;-69
2021/03/15 05:27:41;;;;;;;68.78;27.80;;;2.80;99.90;;;;;;5059347;28;20036;-68
2021/03/15 05:30:10;;;;;;;54.60;23.42;;;2.80;99.90;;;;;;5057318;28;20036;-69
2021/03/15 05:32:44;;;;;;;40.17;15.68;;;2.80;99.90;;;;;;5057148;28;20040;-69
2021/03/15 05:35:10;;;;;;;48.25;19.23;;;2.80;99.90;;;;;;5059488;28;20043;-68
2021/03/15 05:37:37;;;;;;;30.90;13.15;;;2.80;99.90;;;;;;5058477;28;20058;-68
2021/03/15 05:40:08;;;;;;;25.65;10.60;;;2.80;99.90;;;;;;5058333;28;20041;-69
2021/03/15 05:42:46;;;;;;;22.65;8.82;;;2.90;99.90;;;;;;5057784;28;20036;-68
2021/03/15 05:45:25;;;;;;;22.42;8.15;;;3.10;99.90;;;;;;5058818;28;20101;-68
2021/03/15 05:48:28;;;;;;;19.05;7.93;;;3.20;99.90;;;;;;5058622;28;20051;-69
2021/03/15 05:51:00;;;;;;;17.80;8.40;;;3.30;99.90;;;;;;5015231;28;20098;-69
2021/03/15 05:53:50;;;;;;;29.48;11.18;;;3.20;99.90;;;;;;5058815;28;20031;-69
2021/03/15 05:56:52;;;;;;;15.40;7.30;;;3.30;99.90;;;;;;5050867;28;20033;-68
2021/03/15 05:59:37;;;;;;;16.75;8.45;;;3.30;99.90;;;;;;5054899;28;20029;-68
2021/03/15 06:02:50;;;;;;;15.20;7.65;;;3.40;99.90;;;;;;5053441;28;20126;-68
2021/03/15 06:05:24;;;;;;;21.05;7.15;;;3.30;99.90;;;;;;4988000;28;20046;-64
2021/03/15 06:08:01;;;;;;;14.60;7.70;;;3.40;99.90;;;;;;5054596;28;20154;-63
2021/03/15 06:10:50;;;;;;;16.95;8.10;;;3.40;99.90;;;;;;5058330;28;20102;-64
2021/03/15 06:13:15;;;;;;;22.48;7.20;;;3.40;99.90;;;;;;5027424;28;20040;-64
2021/03/15 06:15:46;;;;;;;13.38;6.75;;;3.40;99.90;;;;;;5057919;28;20079;-63
2021/03/15 06:18:14;;;;;;;18.27;6.82;;;3.40;99.90;;;;;;5058852;28;20083;-63
2021/03/15 06:20:45;;;;;;;17.75;7.15;;;3.40;99.90;;;;;;5038257;28;20510;-63
2021/03/15 06:23:15;;;;;;;18.13;8.32;;;3.40;99.90;;;;;;5059095;28;20071;-63
2021/03/15 06:25:42;;;;;;;30.77;11.85;;;3.50;99.90;;;;;;5055886;28;20085;-64
2021/03/15 06:28:08;;;;;;;20.23;9.00;;;3.50;99.90;;;;;;5057849;28;20047;-64
2021/03/15 06:30:35;;;;;;;20.27;7.72;;;3.60;99.90;;;;;;5050417;28;20054;-65
2021/03/15 06:33:02;;;;;;;15.38;6.78;;;3.60;99.90;;;;;;5040082;28;20032;-65
2021/03/15 06:35:30;;;;;;;14.57;7.03;;;3.60;99.90;;;;;;5057678;28;20066;-65
2021/03/15 06:37:57;;;;;;;18.48;8.13;;;3.50;99.90;;;;;;5052002;28;20033;-64
2021/03/15 06:40:23;;;;;;;12.43;6.55;;;3.60;99.90;;;;;;5058569;28;20038;-65
2021/03/15 06:42:51;;;;;;;14.82;6.15;;;3.50;99.90;;;;;;5057689;28;20168;-62
2021/03/15 06:45:21;;;;;;;15.55;7.68;;;3.60;99.90;;;;;;5058600;28;20059;-65
2021/03/15 06:47:49;;;;;;;17.88;7.40;;;3.60;99.90;;;;;;5057221;28;20500;-64
2021/03/15 06:50:17;;;;;;;12.50;6.25;;;3.60;99.90;;;;;;5059519;28;20036;-65
2021/03/15 06:52:52;;;;;;;10.98;6.93;;;3.60;99.90;;;;;;5059548;28;20490;-65
2021/03/15 06:55:18;;;;;;;17.02;6.50;;;3.60;99.90;;;;;;5058628;28;20029;-65
2021/03/15 06:57:44;;;;;;;14.20;6.57;;;3.70;99.90;;;;;;5057525;28;20202;-65
2021/03/15 07:00:10;;;;;;;12.82;6.45;;;3.70;99.90;;;;;;5058909;28;20525;-64
2021/03/15 07:02:37;;;;;;;17.00;6.68;;;3.70;99.90;;;;;;5037576;28;20051;-71
2021/03/15 07:05:13;;;;;;;13.57;6.22;;;3.90;99.90;;;;;;5053677;28;20052;-69
2021/03/15 07:07:48;;;;;;;15.07;7.03;;;4.00;99.90;;;;;;5035522;28;20493;-64
2021/03/15 07:10:19;;;;;;;11.43;5.97;;;4.00;99.90;;;;;;5058291;28;20037;-64
2021/03/15 07:12:45;;;;;;;13.90;6.80;;;4.00;99.90;;;;;;5057176;28;20039;-64
2021/03/15 07:15:11;;;;;;;17.17;6.20;;;4.00;99.90;;;;;;5057944;28;20469;-64
2021/03/15 07:17:38;;;;;;;11.05;5.65;;;4.10;99.90;;;;;;5039131;28;20503;-64
2021/03/15 07:20:05;;;;;;;18.92;5.88;;;4.10;99.90;;;;;;5057571;28;20040;-64
2021/03/15 07:22:31;;;;;;;17.45;5.68;;;4.10;99.90;;;;;;5057465;28;20036;-64
2021/03/15 07:25:17;;;;;;;9.45;5.50;;;4.20;99.90;;;;;;5057532;28;20028;-64
2021/03/15 07:27:49;;;;;;;13.98;5.80;;;4.40;99.90;;;;;;5055957;28;20040;-64
2021/03/15 07:30:34;;;;;;;13.35;6.55;;;4.60;99.90;;;;;;5057835;28;20039;-64
2021/03/15 07:33:03;;;;;;;13.27;5.88;;;4.80;99.90;;;;;;5051789;28;20040;-65
2021/03/15 07:35:34;;;;;;;13.52;6.18;;;4.70;99.90;;;;;;5054709;28;20412;-70
2021/03/15 07:38:00;;;;;;;12.13;6.72;;;4.70;99.90;;;;;;5049772;28;20046;-63
2021/03/15 07:40:38;;;;;;;15.23;6.30;;;5.00;99.90;;;;;;5056370;28;20032;-65
2021/03/15 07:43:09;;;;;;;18.77;6.32;;;5.00;99.90;;;;;;5038392;28;20041;-65
2021/03/15 07:45:43;;;;;;;10.82;5.50;;;4.90;99.90;;;;;;5049881;28;20029;-65
2021/03/15 07:48:10;;;;;;;11.90;5.70;;;5.00;99.90;;;;;;5032143;28;20196;-65
2021/03/15 07:50:37;;;;;;;15.82;6.43;;;5.20;99.90;;;;;;5056571;28;20257;-64
2021/03/15 07:53:04;;;;;;;14.80;6.18;;;5.30;99.90;;;;;;5056124;28;20032;-65
2021/03/15 07:55:41;;;;;;;12.07;5.68;;;5.30;99.90;;;;;;5037938;28;20032;-65
2021/03/15 07:58:29;;;;;;;17.38;5.82;;;5.50;99.90;;;;;;5051801;28;20481;-65
2021/03/15 08:00:56;;;;;;;10.98;5.20;;;5.60;99.90;;;;;;5056840;28;20036;-67
2021/03/15 08:03:23;;;;;;;10.32;6.30;;;5.50;99.90;;;;;;5055987;28;20072;-65
2021/03/15 08:05:50;;;;;;;14.18;5.20;;;5.40;99.90;;;;;;5056874;28;20900;-65
2021/03/15 08:08:17;;;;;;;9.77;5.20;;;5.40;99.90;;;;;;5056313;28;20075;-66
2021/03/15 08:10:43;;;;;;;14.30;6.15;;;5.50;99.90;;;;;;5038364;28;20593;-65
2021/03/15 08:13:14;;;;;;;12.23;4.93;;;5.70;99.90;;;;;;5056130;28;20419;-64
2021/03/15 08:15:43;;;;;;;16.15;5.57;;;5.50;99.90;;;;;;5056056;28;20036;-65
2021/03/15 08:18:12;;;;;;;11.65;5.28;;;5.50;99.90;;;;;;5037515;28;20035;-65
2021/03/15 08:20:48;;;;;;;11.43;5.63;;;5.40;99.90;;;;;;5038370;28;20104;-64
2021/03/15 08:23:17;;;;;;;10.95;5.88;;;5.30;99.90;;;;;;5038002;28;20032;-65
2021/03/15 08:25:45;;;;;;;12.30;5.80;;;5.30;99.90;;;;;;5053597;28;20037;-64
2021/03/15 08:28:12;;;;;;;9.13;5.15;;;5.20;99.90;;;;;;5037923;28;20140;-65
2021/03/15 08:30:43;;;;;;;12.38;5.38;;;5.20;99.90;;;;;;5055320;28;20060;-66
2021/03/15 08:33:13;;;;;;;11.20;5.43;;;5.10;99.90;;;;;;5055405;28;20037;-65
2021/03/15 08:35:39;;;;;;;101.50;48.40;;;5.00;99.90;;;;;;5049268;28;20036;-64
2021/03/15 08:38:06;;;;;;;17.92;9.00;;;5.10;99.90;;;;;;5050270;28;20031;-64
2021/03/15 08:40:44;;;;;;;15.68;8.15;;;5.10;99.90;;;;;;5037650;28;20078;-64
2021/03/15 08:43:31;;;;;;;10.65;5.22;;;5.10;99.90;;;;;;5057274;28;20036;-64
2021/03/15 08:45:58;;;;;;;17.85;9.68;;;5.20;99.90;;;;;;5053219;28;20274;-64
2021/03/15 08:48:33;;;;;;;11.82;4.70;;;5.20;99.90;;;;;;5039325;28;20024;-64
2021/03/15 08:51:01;;;;;;;7.68;4.50;;;5.30;99.90;;;;;;5048709;28;20043;-64
2021/03/15 08:53:42;;;;;;;10.00;4.65;;;5.40;99.90;;;;;;5058027;28;20020;-64
2021/03/15 08:56:12;;;;;;;8.00;4.95;;;5.60;99.90;;;;;;5044760;28;20032;-64
2021/03/15 08:58:42;;;;;;;9.07;4.60;;;5.70;99.90;;;;;;5052161;28;20025;-64
2021/03/15 09:01:10;;;;;;;8.25;4.57;;;5.70;99.90;;;;;;5035367;28;20028;-64
2021/03/15 09:03:46;;;;;;;7.82;4.53;;;5.80;99.90;;;;;;5039597;28;20319;-64
2021/03/15 09:06:12;;;;;;;10.75;6.78;;;5.90;99.90;;;;;;5055434;28;20060;-64
2021/03/15 09:09:07;;;;;;;11.63;6.53;;;5.80;99.90;;;;;;5055718;28;20699;-64
2021/03/15 09:11:41;;;;;;;7.47;4.55;;;6.00;99.90;;;;;;5052689;28;20037;-64
2021/03/15 09:14:25;;;;;;;8.00;4.45;;;6.00;99.90;;;;;;5055864;28;20119;-64
2021/03/15 09:16:58;;;;;;;11.00;4.90;;;5.90;99.90;;;;;;5054080;28;20443;-65
2021/03/15 09:19:31;;;;;;;6.00;4.53;;;6.00;99.90;;;;;;5055836;28;20039;-65
2021/03/15 09:21:58;;;;;;;7.97;4.43;;;6.00;99.90;;;;;;5032064;28;20036;-65
2021/03/15 09:24:44;;;;;;;9.43;4.88;;;6.00;99.90;;;;;;5049745;28;20048;-63
2021/03/15 09:27:30;;;;;;;6.70;4.32;;;6.10;99.90;;;;;;5033058;28;20045;-68
2021/03/15 09:30:00;;;;;;;6.57;4.75;;;6.10;99.90;;;;;;5052564;28;20040;-65
2021/03/15 09:32:28;;;;;;;6.07;3.88;;;6.40;99.90;;;;;;5055725;28;20045;-65
2021/03/15 09:34:56;;;;;;;8.82;4.13;;;6.70;99.90;;;;;;5032456;28;20025;-64
2021/03/15 09:37:23;;;;;;;6.38;4.10;;;6.90;99.90;;;;;;5054413;28;20446;-65
2021/03/15 09:39:49;;;;;;;5.43;3.65;;;7.30;99.90;;;;;;5037797;28;20469;-65
2021/03/15 09:42:18;;;;;;;5.07;3.20;;;7.50;99.90;;;;;;5057054;28;20063;-65
2021/03/15 09:44:44;;;;;;;3.72;2.85;;;7.70;99.90;;;;;;5038438;28;20043;-65
2021/03/15 09:47:25;;;;;;;4.18;2.70;;;7.90;99.90;;;;;;5053753;28;20115;-65
2021/03/15 09:49:52;;;;;;;3.85;2.90;;;7.80;99.90;;;;;;5031194;28;20446;-65
2021/03/15 09:52:28;;;;;;;4.18;2.70;;;7.80;99.90;;;;;;5037883;28;20032;-65
2021/03/15 09:55:04;;;;;;;9.85;2.83;;;7.70;99.90;;;;;;5053112;28;20040;-65
2021/03/15 09:57:30;;;;;;;4.30;2.53;;;7.60;99.90;;;;;;5055052;28;20029;-65
2021/03/15 10:00:18;;;;;;;4.05;2.20;;;7.70;99.90;;;;;;5029107;28;20842;-65
2021/03/15 10:03:07;;;;;;;30.23;12.25;;;7.80;99.90;;;;;;5031545;28;20048;-65
2021/03/15 10:05:53;;;;;;;3.65;2.35;;;7.60;99.90;;;;;;5053646;28;20113;-64
2021/03/15 10:08:47;;;;;;;3.50;2.53;;;7.60;99.90;;;;;;5025932;28;20087;-64
2021/03/15 10:11:43;;;;;;;4.80;3.78;;;7.60;99.90;;;;;;5029501;28;20118;-64
2021/03/15 10:14:35;;;;;;;22.95;11.07;;;7.50;99.90;;;;;;5034058;28;20492;-64
2021/03/15 10:17:21;;;;;;;41.22;20.75;;;7.20;99.90;;;;;;5040471;28;20055;-65
2021/03/15 10:20:03;;;;;;;69.60;32.22;;;7.20;99.90;;;;;;5026599;28;20036;-65
2021/03/15 10:22:29;;;;;;;2.88;1.85;;;7.60;99.90;;;;;;5057430;28;20512;-71
2021/03/15 10:25:02;;;;;;;6.45;2.88;;;7.80;99.90;;;;;;5041564;28;20028;-70
2021/03/15 10:27:33;;;;;;;23.38;10.88;;;7.70;99.90;;;;;;5040741;28;20036;-64
2021/03/15 10:30:11;;;;;;;25.88;12.38;;;7.60;99.90;;;;;;5041567;28;20442;-64
2021/03/15 10:32:41;;;;;;;3.30;2.60;;;7.50;99.90;;;;;;5056099;28;20488;-64
2021/03/15 10:35:09;;;;;;;3.67;1.90;;;7.50;99.90;;;;;;5057708;28;20040;-65
2021/03/15 10:37:50;;;;;;;3.40;1.88;;;7.50;99.90;;;;;;5040173;28;20040;-64
2021/03/15 10:40:24;;;;;;;2.47;1.88;;;7.70;99.90;;;;;;5040305;28;20044;-64
2021/03/15 10:42:52;;;;;;;3.17;2.63;;;7.90;99.90;;;;;;5040102;28;20892;-64
2021/03/15 10:45:22;;;;;;;4.78;2.67;;;7.80;99.90;;;;;;5058497;28;20032;-65
2021/03/15 10:48:06;;;;;;;6.28;2.33;;;7.80;99.90;;;;;;5056383;28;20032;-64
2021/03/15 10:50:47;;;;;;;3.10;1.80;;;7.80;99.90;;;;;;5038532;28;20037;-64
2021/03/15 10:53:19;;;;;;;;;;;7.70;99.90;;;;;;5053711;28;20032;-65
2021/03/15 10:55:46;;;;;;;3.13;2.35;;;7.50;99.90;;;;;;5040200;28;20269;-64
2021/03/15 10:58:18;;;;;;;3.30;2.38;;;7.60;99.90;;;;;;5040038;28;20036;-64
2021/03/15 11:01:02;;;;;;;7.72;3.97;;;7.60;99.90;;;;;;5056069;28;20037;-65
2021/03/15 11:03:32;;;;;;;5.85;2.90;;;7.70;99.90;;;;;;5040201;28;20492;-65
2021/03/15 11:06:15;;;;;;;5.32;3.53;;;7.80;99.90;;;;;;5052493;28;20032;-64
2021/03/15 11:08:58;;;;;;;6.95;4.60;;;7.60;99.90;;;;;;5050236;28;20032;-64
2021/03/15 11:11:26;;;;;;;10.63;7.43;;;7.20;99.90;;;;;;5056698;28;20044;-65
2021/03/15 11:14:06;;;;;;;10.40;6.80;;;7.10;99.90;;;;;;5038700;28;20139;-64
2021/03/15 11:16:35;;;;;;;16.35;9.65;;;7.40;99.90;;;;;;5056197;28;20044;-63
2021/03/15 11:19:04;;;;;;;17.02;9.50;;;7.80;99.90;;;;;;5056954;28;20036;-63
2021/03/15 11:21:31;;;;;;;21.83;10.40;;;7.70;99.90;;;;;;5040210;28;20107;-65
2021/03/15 11:24:13;;;;;;;26.63;13.18;;;7.90;99.90;;;;;;5054222;28;20423;-65
2021/03/15 11:26:59;;;;;;;14.45;8.80;;;8.20;99.90;;;;;;5051914;28;20799;-65
2021/03/15 11:29:37;;;;;;;11.77;8.40;;;8.40;99.90;;;;;;5024867;28;20090;-65
2021/03/15 11:32:13;;;;;;;5.03;4.00;;;8.70;99.90;;;;;;5055193;28;20200;-65
2021/03/15 11:34:49;;;;;;;8.82;5.88;;;8.80;99.90;;;;;;5037670;28;20025;-65
2021/03/15 11:37:24;;;;;;;31.80;18.25;;;9.10;99.90;;;;;;5037614;28;20037;-65
2021/03/15 11:39:55;;;;;;;7.20;4.65;;;8.90;99.90;;;;;;5057361;28;20025;-65
2021/03/15 11:42:26;;;;;;;7.43;5.43;;;8.90;99.90;;;;;;5055679;28;20033;-65
2021/03/15 11:44:53;;;;;;;6.57;4.40;;;8.90;99.90;;;;;;5039046;28;20479;-65
2021/03/15 11:47:19;;;;;;;7.32;5.20;;;8.90;99.90;;;;;;5051305;28;20174;-64
2021/03/15 11:50:02;;;;;;;5.47;3.40;;;9.60;99.90;;;;;;5054261;28;20040;-65
2021/03/15 11:52:32;;;;;;;14.30;4.40;;;10.20;99.90;;;;;;5038441;28;20032;-65
2021/03/15 11:55:11;;;;;;;4.45;2.80;;;10.70;99.90;;;;;;5053116;28;20036;-65
2021/03/15 11:57:38;;;;;;;5.20;2.55;;;11.20;98.40;;;;;;5057642;28;20020;-65
2021/03/15 12:00:10;;;;;;;3.00;2.10;;;10.70;99.90;;;;;;5057005;28;20496;-64
2021/03/15 12:02:46;;;;;;;8.63;3.20;;;10.40;99.30;;;;;;5055483;28;20851;-65
2021/03/15 12:05:32;;;;;;;12.07;3.20;;;10.20;99.30;;;;;;5057130;28;20068;-65
2021/03/15 12:07:59;;;;;;;8.63;4.80;;;9.50;99.90;;;;;;5038831;28;20037;-65
2021/03/15 12:10:25;;;;;;;10.60;4.15;;;9.40;99.90;;;;;;5038755;28;20105;-65
2021/03/15 12:12:51;;;;;;;5.45;3.30;;;9.20;99.90;;;;;;5052936;28;20032;-65
2021/03/15 12:15:17;;;;;;;6.30;3.47;;;8.80;99.90;;;;;;5034692;28;20036;-65
2021/03/15 12:17:43;;;;;;;12.82;4.93;;;8.50;99.90;;;;;;5057001;28;20905;-65
2021/03/15 12:20:10;;;;;;;11.05;3.45;;;8.50;99.90;;;;;;5055271;28;20142;-64
2021/03/15 12:22:48;;;;;;;8.00;3.22;;;8.50;99.90;;;;;;5037259;28;20041;-65
2021/03/15 12:25:16;;;;;;;9.40;3.50;;;8.40;99.90;;;;;;5049992;28;20028;-65
2021/03/15 12:27:49;;;;;;;7.18;3.58;;;8.30;99.90;;;;;;5052904;28;20131;-65
2021/03/15 12:30:16;;;;;;;9.90;3.97;;;8.20;99.90;;;;;;5037709;28;20146;-65
2021/03/15 12:32:42;;;;;;;11.18;4.32;;;8.10;99.90;;;;;;5038633;28;20032;-65
2021/03/15 12:35:08;;;;;;;6.28;3.90;;;8.20;99.90;;;;;;5037758;28;20100;-65
2021/03/15 12:37:34;;;;;;;8.93;3.85;;;8.60;99.90;;;;;;5051913;28;20086;-65
2021/03/15 12:40:03;;;;;;;6.78;3.83;;;8.80;99.90;;;;;;5052269;28;20542;-65
2021/03/15 12:42:30;;;;;;;8.35;3.63;;;9.10;99.90;;;;;;5054251;28;20067;-64
2021/03/15 12:45:07;;;;;;;8.32;4.63;;;9.40;99.90;;;;;;5032322;28;20074;-65
2021/03/15 12:47:38;;;;;;;8.13;3.63;;;9.40;99.90;;;;;;5035223;28;20693;-65
2021/03/15 12:50:05;;;;;;;8.63;3.50;;;9.30;99.90;;;;;;5056245;28;20032;-65
2021/03/15 12:52:31;;;;;;;12.15;5.88;;;9.20;99.90;;;;;;5054990;28;20036;-65
2021/03/15 12:55:17;;;;;;;12.07;5.95;;;8.90;99.90;;;;;;5055392;28;20041;-65
2021/03/15 12:57:47;;;;;;;14.02;9.48;;;8.70;99.90;;;;;;5037290;28;20036;-65
2021/03/15 13:00:13;;;;;;;10.95;6.22;;;8.50;99.90;;;;;;5036768;28;20041;-65
2021/03/15 13:02:59;;;;;;;8.45;4.15;;;8.40;99.90;;;;;;5048745;28;20121;-65
2021/03/15 13:05:25;;;;;;;8.73;4.28;;;8.20;99.90;;;;;;5036758;28;20032;-65
2021/03/15 13:08:26;;;;;;;9.98;4.40;;;8.20;99.90;;;;;;5052949;28;20043;-66